createdAt,value
2023-05-12T00:00:34.166Z,5.19
2023-05-12T00:03:15.212Z,5.12
2023-05-12T00:05:44.894Z,5.12
2023-05-12T00:08:16.489Z,5.10
2023-05-12T00:10:46.170Z,5.14
2023-05-12T00:13:16.352Z,5.09
2023-05-12T00:15:46.861Z,5.00
2023-05-12T00:18:16.871Z,5.00
2023-05-12T00:20:46.750Z,5.06
2023-05-12T00:23:18.390Z,5.17
2023-05-12T00:25:48.039Z,5.22
2023-05-12T00:28:19.886Z,5.23
2023-05-12T00:30:49.602Z,5.26
2023-05-12T00:33:19.543Z,5.20
2023-05-12T00:35:49.319Z,5.15
2023-05-12T00:38:21.804Z,5.00
2023-05-12T00:40:51.465Z,4.90
2023-05-12T00:43:21.450Z,4.89
2023-05-12T00:45:51.377Z,4.96
2023-05-12T00:48:21.659Z,4.89
2023-05-12T00:50:51.410Z,4.92
2023-05-12T00:53:23.253Z,4.88
2023-05-12T00:55:53.955Z,4.87
2023-05-12T00:58:24.072Z,4.80
2023-05-12T01:00:53.842Z,4.71
2023-05-12T01:03:24.299Z,4.63
2023-05-12T01:05:56.887Z,4.67
2023-05-12T01:08:28.346Z,4.50
2023-05-12T01:10:58.054Z,4.39
2023-05-12T01:13:28.398Z,4.34
2023-05-12T01:16:00.356Z,4.30
2023-05-12T01:18:30.979Z,4.31
2023-05-12T01:21:01.772Z,4.30
2023-05-12T01:23:36.250Z,4.21
2023-05-12T01:26:08.314Z,4.16
2023-05-12T01:28:39.545Z,4.07
2023-05-12T01:31:10.140Z,4.07
2023-05-12T01:33:41.685Z,4.15
2023-05-12T01:36:11.548Z,4.20
2023-05-12T01:38:41.732Z,4.23
2023-05-12T01:41:13.022Z,4.23
2023-05-12T01:43:42.982Z,4.32
2023-05-12T01:46:13.114Z,4.34
2023-05-12T01:48:44.733Z,4.36
2023-05-12T01:51:14.549Z,4.35
2023-05-12T01:53:44.501Z,4.21
2023-05-12T01:56:15.619Z,4.15
2023-05-12T01:58:45.876Z,4.12
2023-05-12T02:01:15.706Z,4.14
2023-05-12T02:03:45.893Z,4.16
2023-05-12T02:06:16.637Z,4.06
2023-05-12T02:08:46.674Z,3.97
2023-05-12T02:11:18.194Z,3.88
2023-05-12T02:13:48.377Z,3.62
2023-05-12T02:16:18.233Z,3.90
2023-05-12T02:18:49.360Z,3.89
2023-05-12T02:21:19.227Z,3.85
2023-05-12T02:23:49.304Z,3.77
2023-05-12T02:26:21.530Z,3.80
2023-05-12T02:28:51.710Z,3.86
2023-05-12T02:31:22.178Z,3.87
2023-05-12T02:33:52.933Z,3.80
2023-05-12T02:36:22.693Z,3.71
2023-05-12T02:38:53.251Z,3.61
2023-05-12T02:41:24.491Z,3.63
2023-05-12T02:43:54.710Z,3.57
2023-05-12T02:46:24.609Z,3.52
2023-05-12T02:48:55.162Z,3.58
2023-05-12T02:51:24.983Z,3.48
2023-05-12T02:53:55.072Z,3.52
2023-05-12T02:56:26.364Z,3.43
2023-05-12T02:58:56.496Z,3.45
2023-05-12T03:01:26.210Z,3.44
2023-05-12T03:03:56.372Z,3.43
2023-05-12T03:06:26.362Z,3.48
2023-05-12T03:08:56.590Z,3.45
2023-05-12T03:11:27.917Z,3.40
2023-05-12T03:13:58.165Z,3.40
2023-05-12T03:16:27.997Z,3.50
2023-05-12T03:18:58.228Z,3.42
2023-05-12T03:21:28.823Z,3.44
2023-05-12T03:23:59.114Z,3.37
2023-05-12T03:26:30.849Z,3.42
2023-05-12T03:29:01.119Z,3.40
2023-05-12T03:31:31.218Z,3.43
2023-05-12T03:34:01.682Z,3.47
2023-05-12T03:36:31.869Z,3.39
2023-05-12T03:39:03.405Z,3.47
2023-05-12T03:41:36.923Z,3.47
2023-05-12T03:44:08.841Z,3.58
2023-05-12T03:46:38.593Z,3.67
2023-05-12T03:49:10.301Z,3.77
2023-05-12T03:51:40.613Z,3.89
2023-05-12T03:54:24.627Z,3.91
2023-05-12T03:56:55.706Z,3.96
2023-05-12T03:59:26.132Z,4.08
2023-05-12T04:01:55.901Z,4.23
2023-05-12T04:04:28.615Z,4.40
2023-05-12T04:07:05.497Z,4.70
2023-05-12T04:09:35.554Z,4.94
2023-05-12T04:12:08.236Z,5.02
2023-05-12T04:14:43.248Z,5.38
2023-05-12T04:17:13.316Z,5.66
2023-05-12T04:19:43.601Z,5.82
2023-05-12T04:22:13.373Z,6.04
2023-05-12T04:24:43.715Z,6.22
2023-05-12T04:27:15.153Z,6.31
2023-05-12T04:29:45.693Z,6.63
2023-05-12T04:32:15.559Z,6.81
2023-05-12T04:34:45.833Z,6.78
2023-05-12T04:37:15.547Z,7.21
2023-05-12T04:39:46.158Z,7.28
2023-05-12T04:42:17.187Z,7.20
2023-05-12T04:44:47.616Z,7.46
2023-05-12T04:47:17.428Z,7.16
2023-05-12T04:49:47.505Z,7.22
2023-05-12T04:52:17.582Z,7.20
2023-05-12T04:54:47.748Z,7.30
2023-05-12T04:57:18.926Z,7.49
2023-05-12T04:59:49.998Z,7.71
2023-05-12T05:02:19.708Z,8.02
2023-05-12T05:04:50.066Z,8.28
2023-05-12T05:07:20.330Z,8.71
2023-05-12T05:09:50.306Z,8.99
2023-05-12T05:12:21.777Z,9.40
2023-05-12T05:14:52.041Z,9.63
2023-05-12T05:17:22.191Z,9.94
2023-05-12T05:19:57.542Z,10.30
2023-05-12T05:22:32.010Z,10.80
2023-05-12T05:25:02.242Z,11.10
2023-05-12T05:27:33.544Z,11.72
2023-05-12T05:30:03.781Z,11.92
2023-05-12T05:32:34.016Z,11.72
2023-05-12T05:35:04.304Z,11.69
2023-05-12T05:37:36.592Z,11.92
2023-05-12T05:40:08.052Z,12.42
2023-05-12T05:42:39.376Z,12.50
2023-05-12T05:45:10.182Z,12.77
2023-05-12T05:47:41.285Z,12.91
2023-05-12T05:50:13.512Z,13.27
2023-05-12T05:52:44.793Z,13.16
2023-05-12T05:55:15.339Z,12.63
2023-05-12T05:57:47.322Z,12.80
2023-05-12T06:00:18.323Z,12.84
2023-05-12T06:02:51.882Z,13.02
2023-05-12T06:05:24.098Z,13.16
2023-05-12T06:07:53.928Z,13.12
2023-05-12T06:10:24.379Z,13.14
2023-05-12T06:12:56.039Z,13.45
2023-05-12T06:15:26.271Z,13.11
2023-05-12T06:17:56.016Z,13.90
2023-05-12T06:20:26.261Z,13.96
2023-05-12T06:22:56.149Z,14.13
2023-05-12T06:25:26.278Z,14.04
2023-05-12T06:27:57.838Z,14.18
2023-05-12T06:30:27.872Z,14.07
2023-05-12T06:32:57.793Z,14.50
2023-05-12T06:35:28.028Z,14.73
2023-05-12T06:37:57.761Z,14.46
2023-05-12T06:40:27.908Z,14.31
2023-05-12T06:42:59.264Z,14.38
2023-05-12T06:45:29.907Z,14.47
2023-05-12T06:48:03.766Z,14.53
2023-05-12T06:50:33.914Z,14.62
2023-05-12T06:53:03.953Z,14.73
2023-05-12T06:55:34.514Z,15.30
2023-05-12T06:58:05.752Z,14.98
2023-05-12T07:00:35.774Z,15.34
2023-05-12T07:03:05.696Z,15.37
2023-05-12T07:05:36.009Z,15.35
2023-05-12T07:08:06.078Z,15.56
2023-05-12T07:10:36.297Z,15.75
2023-05-12T07:13:07.602Z,15.81
2023-05-12T07:15:37.931Z,16.10
2023-05-12T07:18:07.831Z,15.87
2023-05-12T07:20:38.539Z,15.81
2023-05-12T07:23:08.363Z,15.72
2023-05-12T07:25:38.492Z,16.17
2023-05-12T07:28:09.600Z,16.37
2023-05-12T07:30:40.285Z,16.47
2023-05-12T07:33:10.312Z,17.10
2023-05-12T07:35:40.361Z,17.03
2023-05-12T07:38:10.524Z,17.31
2023-05-12T07:40:40.690Z,17.39
2023-05-12T07:43:11.823Z,17.49
2023-05-12T07:45:42.131Z,17.69
2023-05-12T07:48:12.336Z,17.87
2023-05-12T07:50:42.627Z,17.50
2023-05-12T07:53:12.322Z,17.86
2023-05-12T07:55:43.965Z,17.57
2023-05-12T07:58:15.425Z,17.12
2023-05-12T08:00:45.852Z,17.45
2023-05-12T08:03:16.632Z,17.72
2023-05-12T08:05:46.954Z,17.79
2023-05-12T08:08:17.623Z,17.91
2023-05-12T08:10:47.716Z,17.74
2023-05-12T08:13:19.162Z,18.21
2023-05-12T08:15:51.172Z,18.11
2023-05-12T08:18:21.305Z,18.08
2023-05-12T08:20:51.763Z,18.32
2023-05-12T08:23:21.562Z,18.31
2023-05-12T08:25:51.886Z,18.25
2023-05-12T08:28:23.309Z,18.19
2023-05-12T08:30:53.331Z,18.08
2023-05-12T08:33:23.192Z,18.57
2023-05-12T08:35:54.245Z,18.88
2023-05-12T08:38:24.061Z,18.92
2023-05-12T08:41:00.197Z,18.87
2023-05-12T08:43:39.752Z,18.62
2023-05-12T08:46:09.936Z,18.65
2023-05-12T08:48:45.613Z,18.71
2023-05-12T08:51:43.284Z,19.06
2023-05-12T08:54:14.771Z,19.03
2023-05-12T08:59:20.231Z,19.50
2023-05-12T09:01:51.484Z,19.17
2023-05-12T09:04:21.273Z,19.19
2023-05-12T09:06:53.590Z,19.31
2023-05-12T09:09:25.088Z,19.39
2023-05-12T09:11:58.243Z,19.46
2023-05-12T09:14:30.847Z,19.43
2023-05-12T09:17:02.831Z,19.31
2023-05-12T09:19:32.949Z,18.98
2023-05-12T09:22:03.079Z,19.21
2023-05-12T09:24:35.738Z,19.55
2023-05-12T09:27:06.081Z,19.77
2023-05-12T09:29:42.526Z,19.83
2023-05-12T09:32:18.211Z,19.84
2023-05-12T09:34:53.087Z,19.81
2023-05-12T09:37:31.678Z,20.01
2023-05-12T09:40:02.181Z,19.89
2023-05-12T09:42:32.828Z,19.87
2023-05-12T09:45:04.233Z,19.31
2023-05-12T09:47:38.092Z,19.56
2023-05-12T09:50:10.502Z,19.74
2023-05-12T09:52:41.316Z,19.75
2023-05-12T09:55:11.839Z,19.77
2023-05-12T09:57:42.454Z,19.84
2023-05-12T10:00:33.239Z,19.48
2023-05-12T10:03:11.313Z,19.94
2023-05-12T10:05:45.794Z,20.15
2023-05-12T10:08:19.011Z,19.78
2023-05-12T10:10:51.003Z,20.17
2023-05-12T10:13:21.719Z,20.43
2023-05-12T10:15:53.710Z,20.18
2023-05-12T10:18:24.018Z,20.07
2023-05-12T10:20:54.480Z,20.24
2023-05-12T10:23:25.020Z,20.49
2023-05-12T10:25:58.752Z,20.31
2023-05-12T10:28:28.946Z,20.54
2023-05-12T10:31:00.858Z,20.28
2023-05-12T10:33:31.128Z,20.26
2023-05-12T10:36:01.066Z,20.06
2023-05-12T10:38:37.475Z,20.49
2023-05-12T10:41:08.260Z,20.63
2023-05-12T10:43:42.402Z,20.71
2023-05-12T10:46:17.669Z,20.53
2023-05-12T10:48:56.170Z,20.54
2023-05-12T10:51:28.630Z,20.19
2023-05-12T10:54:01.300Z,20.00
2023-05-12T10:56:32.589Z,20.31
2023-05-12T10:59:18.628Z,20.54
2023-05-12T11:02:01.756Z,20.61
2023-05-12T11:04:41.097Z,20.83
2023-05-12T11:07:12.090Z,20.69
2023-05-12T11:09:53.561Z,20.38
2023-05-12T11:12:32.540Z,20.39
2023-05-12T11:15:03.828Z,20.38
2023-05-12T11:17:35.298Z,20.54
2023-05-12T11:20:05.792Z,20.46
2023-05-12T11:22:35.597Z,20.45
2023-05-12T11:25:12.762Z,20.47
2023-05-12T11:27:47.700Z,20.95
2023-05-12T11:30:18.569Z,20.88
2023-05-12T11:32:50.086Z,20.53
2023-05-12T11:35:21.073Z,20.45
2023-05-12T11:37:51.760Z,20.51
2023-05-12T11:40:22.205Z,20.81
2023-05-12T11:42:54.369Z,21.04
2023-05-12T11:45:26.067Z,20.59
2023-05-12T11:48:07.631Z,20.64
2023-05-12T11:50:39.770Z,20.63
2023-05-12T11:53:11.780Z,20.64
2023-05-12T11:55:49.266Z,20.46
2023-05-12T11:58:23.194Z,20.53
2023-05-12T12:00:53.395Z,20.65
2023-05-12T12:03:25.200Z,20.77
2023-05-12T12:06:02.044Z,21.00
2023-05-12T12:08:32.224Z,20.87
2023-05-12T12:11:04.459Z,20.85
2023-05-12T12:13:34.297Z,21.28
2023-05-12T12:16:04.427Z,21.66
2023-05-12T12:18:35.541Z,22.06
2023-05-12T12:21:05.607Z,22.45
2023-05-12T12:23:44.089Z,22.11
2023-05-12T12:26:21.384Z,22.50
2023-05-12T12:28:51.510Z,22.38
2023-05-12T12:31:21.641Z,22.59
2023-05-12T12:33:52.889Z,22.36
2023-05-12T12:36:23.321Z,22.50
2023-05-12T12:38:53.042Z,22.39
2023-05-12T12:41:23.341Z,22.50
2023-05-12T12:43:52.931Z,22.24
2023-05-12T12:46:23.024Z,22.42
2023-05-12T12:48:54.341Z,22.43
2023-05-12T12:51:28.423Z,22.22
2023-05-12T12:54:02.881Z,22.16
2023-05-12T12:56:33.323Z,21.66
2023-05-12T12:59:03.179Z,21.65
2023-05-12T13:01:34.485Z,21.84
2023-05-12T13:04:06.016Z,22.34
2023-05-12T13:06:37.051Z,22.34
2023-05-12T13:09:06.852Z,21.94
2023-05-12T13:11:37.140Z,22.32
2023-05-12T13:14:07.259Z,22.23
2023-05-12T13:16:38.065Z,22.69
2023-05-12T13:19:09.413Z,22.26
2023-05-12T13:21:39.535Z,22.28
2023-05-12T13:24:09.488Z,21.92
2023-05-12T13:26:39.610Z,22.16
2023-05-12T13:29:09.275Z,22.44
2023-05-12T13:31:41.533Z,22.40
2023-05-12T13:34:12.674Z,22.68
2023-05-12T13:36:42.957Z,22.43
2023-05-12T13:39:12.948Z,22.03
2023-05-12T13:41:43.017Z,22.41
2023-05-12T13:44:13.031Z,22.61
2023-05-12T13:46:43.279Z,22.81
2023-05-12T13:49:14.407Z,22.60
2023-05-12T13:51:44.434Z,22.71
2023-05-12T13:54:14.257Z,22.54
2023-05-12T13:56:44.190Z,22.82
2023-05-12T13:59:14.482Z,22.82
2023-05-12T14:01:45.225Z,23.37
2023-05-12T14:04:16.528Z,22.88
2023-05-12T14:06:47.495Z,22.62
2023-05-12T14:09:17.305Z,22.48
2023-05-12T14:11:47.375Z,22.64
2023-05-12T14:14:17.155Z,22.13
2023-05-12T14:16:47.283Z,22.27
2023-05-12T14:19:18.601Z,22.17
2023-05-12T14:21:48.677Z,22.24
2023-05-12T14:24:18.486Z,22.21
2023-05-12T14:26:49.143Z,22.26
2023-05-12T14:29:19.116Z,21.79
2023-05-12T14:31:49.419Z,21.97
2023-05-12T14:34:20.814Z,22.11
2023-05-12T14:36:51.025Z,21.73
2023-05-12T14:39:21.918Z,21.62
2023-05-12T14:41:51.991Z,21.60
2023-05-12T14:44:21.752Z,21.43
2023-05-12T14:46:53.210Z,21.10
2023-05-12T14:49:24.326Z,21.11
2023-05-12T14:51:54.439Z,21.12
2023-05-12T14:54:26.019Z,21.08
2023-05-12T14:56:56.820Z,20.89
2023-05-12T14:59:26.703Z,20.88
2023-05-12T15:01:56.781Z,20.80
2023-05-12T15:04:28.280Z,20.88
2023-05-12T15:06:58.212Z,20.98
2023-05-12T15:09:27.846Z,20.79
2023-05-12T15:12:13.800Z,20.64
2023-05-12T15:14:43.651Z,20.73
2023-05-12T15:17:14.063Z,20.69
2023-05-12T15:19:45.455Z,20.71
2023-05-12T15:22:15.721Z,20.78
2023-05-12T15:24:45.479Z,20.73
2023-05-12T15:27:15.603Z,20.78
2023-05-12T15:29:45.473Z,20.83
2023-05-12T15:32:16.140Z,20.78
2023-05-12T15:34:47.222Z,20.97
2023-05-12T15:37:17.572Z,20.98
2023-05-12T15:39:47.304Z,20.92
2023-05-12T15:42:22.450Z,20.95
2023-05-12T15:44:56.219Z,20.99
2023-05-12T15:47:26.214Z,21.01
2023-05-12T15:49:57.543Z,20.98
2023-05-12T15:52:28.025Z,21.13
2023-05-12T15:54:57.863Z,21.24
2023-05-12T15:57:28.028Z,21.18
2023-05-12T16:00:01.291Z,21.18
2023-05-12T16:02:43.092Z,21.08
2023-05-12T16:05:18.005Z,20.96
2023-05-12T16:07:49.759Z,20.86
2023-05-12T16:10:19.565Z,20.82
2023-05-12T16:12:49.859Z,20.96
2023-05-12T16:15:20.120Z,20.81
2023-05-12T16:17:50.565Z,20.77
2023-05-12T16:20:21.699Z,20.55
2023-05-12T16:22:53.682Z,20.38
2023-05-12T16:25:23.862Z,19.75
2023-05-12T16:27:54.075Z,19.59
2023-05-12T16:30:23.715Z,19.53
2023-05-12T16:32:53.853Z,19.48
2023-05-12T16:35:27.776Z,19.48
2023-05-12T16:37:59.596Z,19.39
2023-05-12T16:40:29.706Z,19.11
2023-05-12T16:43:00.032Z,19.04
2023-05-12T16:45:29.742Z,18.86
2023-05-12T16:47:59.684Z,18.73
2023-05-12T16:50:31.024Z,18.54
2023-05-12T16:53:01.086Z,18.63
2023-05-12T16:55:31.113Z,18.47
2023-05-12T16:58:01.946Z,18.37
2023-05-12T17:00:31.804Z,18.38
2023-05-12T17:03:03.750Z,18.33
2023-05-12T17:05:36.126Z,18.12
2023-05-12T17:08:06.323Z,18.07
2023-05-12T17:10:36.923Z,17.98
2023-05-12T17:13:07.308Z,17.85
2023-05-12T17:15:38.881Z,17.76
2023-05-12T17:18:09.445Z,17.53
2023-05-12T17:20:40.963Z,17.49
2023-05-12T17:23:11.892Z,17.53
2023-05-12T17:25:41.785Z,17.38
2023-05-12T17:28:12.384Z,17.35
2023-05-12T17:30:43.485Z,17.17
2023-05-12T17:33:15.776Z,17.13
2023-05-12T17:36:03.729Z,17.06
2023-05-12T17:38:40.256Z,17.01
2023-05-12T17:41:10.250Z,16.91
2023-05-12T17:43:40.342Z,16.81
2023-05-12T17:46:09.974Z,16.72
2023-05-12T17:48:41.438Z,16.74
2023-05-12T17:51:15.338Z,16.58
2023-05-12T17:53:46.585Z,16.54
2023-05-12T17:56:16.867Z,16.41
2023-05-12T17:58:47.467Z,16.19
2023-05-12T18:01:17.305Z,16.12
2023-05-12T18:03:47.916Z,16.06
2023-05-12T18:06:19.210Z,15.99
2023-05-12T18:08:49.320Z,15.84
2023-05-12T18:11:18.848Z,15.75
2023-05-12T18:13:51.380Z,15.53
2023-05-12T18:16:29.073Z,15.40
2023-05-12T18:19:00.448Z,15.36
2023-05-12T18:21:31.850Z,15.30
2023-05-12T18:24:04.483Z,15.08
2023-05-12T18:26:42.766Z,14.97
2023-05-12T18:29:13.933Z,14.84
2023-05-12T18:31:44.519Z,14.94
2023-05-12T18:34:14.502Z,14.96
2023-05-12T18:36:49.182Z,14.74
2023-05-12T18:39:23.091Z,14.58
2023-05-12T18:41:53.961Z,14.39
2023-05-12T18:44:25.135Z,14.09
2023-05-12T18:46:56.563Z,13.79
2023-05-12T18:49:28.316Z,13.59
2023-05-12T18:52:06.294Z,13.44
2023-05-12T18:54:39.365Z,12.99
2023-05-12T18:57:09.994Z,13.14
2023-05-12T18:59:40.043Z,13.07
2023-05-12T19:02:12.393Z,13.05
2023-05-12T19:04:44.380Z,12.82
2023-05-12T19:07:18.992Z,12.63
2023-05-12T19:09:56.014Z,12.70
2023-05-12T19:12:30.078Z,12.38
2023-05-12T19:15:03.214Z,12.22
2023-05-12T19:17:35.829Z,12.10
2023-05-12T19:20:08.026Z,12.19
2023-05-12T19:22:41.721Z,12.20
2023-05-12T19:25:18.845Z,12.19
2023-05-12T19:27:51.183Z,12.17
2023-05-12T19:30:24.088Z,12.18
2023-05-12T19:32:55.224Z,12.10
2023-05-12T19:35:28.031Z,11.82
2023-05-12T19:38:01.988Z,11.76
2023-05-12T19:40:32.092Z,11.61
2023-05-12T19:43:03.105Z,11.54
2023-05-12T19:45:33.685Z,11.57
2023-05-12T19:48:04.780Z,11.51
2023-05-12T19:50:35.136Z,11.46
2023-05-12T19:53:10.288Z,11.34
2023-05-12T19:55:42.639Z,11.29
2023-05-12T19:58:15.172Z,11.22
2023-05-12T20:00:46.615Z,11.09
2023-05-12T20:03:19.618Z,10.97
2023-05-12T20:05:51.880Z,10.93
2023-05-12T20:08:27.091Z,10.85
2023-05-12T20:10:58.424Z,10.79
2023-05-12T20:13:31.750Z,10.72
2023-05-12T20:16:06.192Z,10.60
2023-05-12T20:18:36.985Z,10.51
2023-05-12T20:21:07.125Z,10.51
2023-05-12T20:23:50.010Z,10.61
2023-05-12T20:26:31.810Z,10.43
2023-05-12T20:29:05.665Z,10.29
2023-05-12T20:31:38.330Z,10.24
2023-05-12T20:34:11.177Z,10.13
2023-05-12T20:36:41.398Z,10.08
2023-05-12T20:39:16.523Z,10.04
2023-05-12T20:41:51.247Z,9.88
2023-05-12T20:44:22.308Z,9.78
2023-05-12T20:46:55.537Z,9.75
2023-05-12T20:49:28.879Z,9.73
2023-05-12T20:52:01.792Z,9.66
2023-05-12T20:54:37.015Z,9.54
2023-05-12T20:57:11.170Z,9.49
2023-05-12T20:59:42.594Z,9.57
2023-05-12T21:02:14.138Z,9.37
2023-05-12T21:04:45.268Z,9.31
2023-05-12T21:07:16.901Z,9.38
2023-05-12T21:09:49.548Z,9.29
2023-05-12T21:12:21.031Z,9.19
2023-05-12T21:14:53.018Z,9.20
2023-05-12T21:17:24.651Z,9.15
2023-05-12T21:19:55.408Z,9.08
2023-05-12T21:22:27.422Z,8.99
2023-05-12T21:25:00.528Z,8.87
2023-05-12T21:27:32.782Z,8.77
2023-05-12T21:30:03.582Z,8.74
2023-05-12T21:32:33.717Z,8.73
2023-05-12T21:35:03.902Z,8.64
2023-05-12T21:37:34.743Z,8.58
2023-05-12T21:40:07.079Z,8.55
2023-05-12T21:42:38.089Z,8.54
2023-05-12T21:45:08.462Z,8.50
2023-05-12T21:47:38.663Z,8.49
2023-05-12T21:50:08.569Z,8.38
2023-05-12T21:52:38.581Z,8.29
2023-05-12T21:55:10.628Z,8.25
2023-05-12T21:57:40.950Z,8.11
2023-05-12T22:00:13.105Z,8.06
2023-05-12T22:02:45.582Z,8.08
2023-05-12T22:05:15.726Z,8.18
2023-05-12T22:07:45.909Z,8.19
2023-05-12T22:10:17.250Z,8.31
2023-05-12T22:12:47.425Z,8.24
2023-05-12T22:15:18.225Z,8.01
2023-05-12T22:17:48.961Z,7.92
2023-05-12T22:20:19.342Z,7.86
2023-05-12T22:22:49.603Z,7.78
2023-05-12T22:25:20.804Z,7.67
2023-05-12T22:27:50.915Z,7.62
2023-05-12T22:30:21.956Z,7.62
2023-05-12T22:32:52.135Z,7.58
2023-05-12T22:35:21.885Z,7.52
2023-05-12T22:37:51.991Z,7.53
2023-05-12T22:40:23.535Z,7.56
2023-05-12T22:42:53.576Z,7.48
2023-05-12T22:45:23.202Z,7.42
2023-05-12T22:47:53.653Z,7.36
2023-05-12T22:50:23.987Z,7.34
2023-05-12T22:52:57.487Z,7.32
2023-05-12T22:55:31.051Z,7.27
2023-05-12T22:58:01.517Z,7.25
2023-05-12T23:00:31.288Z,7.22
2023-05-12T23:03:01.481Z,7.20
2023-05-12T23:05:31.294Z,7.23
2023-05-12T23:08:03.181Z,7.30
2023-05-12T23:10:34.315Z,7.24
2023-05-12T23:13:04.299Z,7.13
2023-05-12T23:15:33.990Z,7.03
2023-05-12T23:18:04.012Z,7.14
2023-05-12T23:20:34.221Z,7.04
2023-05-12T23:23:04.427Z,7.00
2023-05-12T23:25:37.126Z,6.96
2023-05-12T23:28:07.675Z,6.89
2023-05-12T23:30:37.358Z,6.83
2023-05-12T23:33:07.749Z,6.80
2023-05-12T23:35:37.457Z,6.82
2023-05-12T23:38:07.738Z,6.84
2023-05-12T23:40:39.507Z,6.79
2023-05-12T23:43:09.809Z,6.75
2023-05-12T23:45:39.529Z,6.77
2023-05-12T23:48:09.680Z,6.81
2023-05-12T23:50:39.407Z,6.82
2023-05-12T23:53:09.637Z,6.78
2023-05-12T23:55:40.751Z,6.70
2023-05-12T23:58:11.127Z,6.67
